createdAt,value
2022-09-14T00:00:11.149Z,96940.38
2022-09-14T00:02:37.791Z,96958.81
2022-09-14T00:05:04.431Z,96947.00
2022-09-14T00:07:30.878Z,96942.00
2022-09-14T00:09:57.290Z,96939.53
2022-09-14T00:12:25.008Z,96942.50
2022-09-14T00:14:51.494Z,96935.28
2022-09-14T00:17:18.031Z,96934.50
2022-09-14T00:19:44.494Z,96933.41
2022-09-14T00:22:10.956Z,96930.06
2022-09-14T00:24:37.387Z,96925.56
2022-09-14T00:27:04.042Z,96921.88
2022-09-14T00:29:30.897Z,96925.72
2022-09-14T00:31:59.763Z,96926.97
2022-09-14T00:34:27.205Z,96930.44
2022-09-14T00:36:54.297Z,96926.88
2022-09-14T00:39:21.769Z,96924.06
2022-09-14T00:41:48.716Z,96920.69
2022-09-14T00:44:15.141Z,96922.44
2022-09-14T00:46:43.305Z,96922.00
2022-09-14T00:49:25.584Z,96908.38
2022-09-14T00:52:03.874Z,96909.09
2022-09-14T00:54:30.646Z,96913.28
2022-09-14T00:57:01.512Z,96903.91
2022-09-14T00:59:30.046Z,96904.91
2022-09-14T01:01:56.853Z,96901.53
2022-09-14T01:04:24.130Z,96901.19
2022-09-14T01:07:02.823Z,96899.47
2022-09-14T01:09:38.131Z,96891.84
2022-09-14T01:12:20.719Z,96883.47
2022-09-14T01:15:05.988Z,96879.28
2022-09-14T01:17:38.505Z,96880.09
2022-09-14T01:20:11.124Z,96875.09
2022-09-14T01:22:44.481Z,96878.03
2022-09-14T01:25:23.372Z,96877.00
2022-09-14T01:27:51.654Z,96870.50
2022-09-14T01:30:20.661Z,96870.38
2022-09-14T01:33:08.349Z,96882.56
2022-09-14T01:35:40.677Z,96870.84
2022-09-14T01:38:26.934Z,96868.50
2022-09-14T01:40:54.543Z,96855.22
2022-09-14T01:43:30.082Z,96863.16
2022-09-14T01:45:59.672Z,96867.53
2022-09-14T01:48:33.069Z,96871.97
2022-09-14T01:51:00.945Z,96870.41
2022-09-14T01:53:34.699Z,96864.44
2022-09-14T01:56:15.178Z,96856.41
2022-09-14T01:58:47.749Z,96859.59
2022-09-14T02:01:19.193Z,96854.28
2022-09-14T02:03:52.000Z,96848.53
2022-09-14T02:06:25.110Z,96845.28
2022-09-14T02:08:52.178Z,96832.31
2022-09-14T02:11:18.739Z,96834.38
2022-09-14T02:13:45.218Z,96839.53
2022-09-14T02:16:12.279Z,96843.75
2022-09-14T02:18:39.764Z,96836.56
2022-09-14T02:21:10.683Z,96834.03
2022-09-14T02:23:37.606Z,96832.19
2022-09-14T02:26:04.705Z,96831.72
2022-09-14T02:28:31.241Z,96819.44
2022-09-14T02:31:19.405Z,96821.13
2022-09-14T02:33:52.089Z,96804.31
2022-09-14T02:36:25.596Z,96803.00
2022-09-14T02:39:15.303Z,96792.44
2022-09-14T02:41:42.076Z,96793.06
2022-09-14T02:44:27.641Z,96790.88
2022-09-14T02:47:06.096Z,96789.56
2022-09-14T02:49:58.673Z,96790.19
2022-09-14T02:52:32.201Z,96787.00
2022-09-14T02:55:02.369Z,96798.81
2022-09-14T02:57:28.805Z,96794.25
2022-09-14T02:59:55.398Z,96783.06
2022-09-14T03:02:22.090Z,96779.09
2022-09-14T03:04:48.700Z,96776.88
2022-09-14T03:07:15.187Z,96780.94
2022-09-14T03:09:41.621Z,96776.28
2022-09-14T03:12:08.059Z,96784.69
2022-09-14T03:14:34.728Z,96774.47
2022-09-14T03:17:01.160Z,96777.78
2022-09-14T03:19:27.576Z,96774.22
2022-09-14T03:21:54.018Z,96777.91
2022-09-14T03:24:20.516Z,96776.16
2022-09-14T03:26:47.281Z,96776.16
2022-09-14T03:29:13.678Z,96773.38
2022-09-14T03:31:40.225Z,96773.72
2022-09-14T03:34:06.846Z,96768.06
2022-09-14T03:36:33.311Z,96765.84
2022-09-14T03:39:01.682Z,96765.03
2022-09-14T03:41:28.533Z,96763.78
2022-09-14T03:43:55.210Z,96761.06
2022-09-14T03:46:23.282Z,96756.59
2022-09-14T03:48:50.009Z,96745.28
2022-09-14T03:51:16.863Z,96728.03
2022-09-14T03:53:44.789Z,96738.22
2022-09-14T03:56:12.901Z,96747.91
2022-09-14T03:58:39.543Z,96743.69
2022-09-14T04:01:14.593Z,96743.25
2022-09-14T04:03:41.585Z,96737.41
2022-09-14T04:06:08.399Z,96745.81
2022-09-14T04:08:38.164Z,96744.06
2022-09-14T04:11:08.610Z,96743.25
2022-09-14T04:13:35.058Z,96743.63
2022-09-14T04:16:02.036Z,96736.84
2022-09-14T04:18:28.593Z,96738.50
2022-09-14T04:20:58.532Z,96739.28
2022-09-14T04:23:25.489Z,96744.72
2022-09-14T04:25:52.577Z,96752.84
2022-09-14T04:28:20.498Z,96757.22
2022-09-14T04:30:57.269Z,96743.50
2022-09-14T04:33:24.210Z,96750.72
2022-09-14T04:35:58.181Z,96748.38
2022-09-14T04:38:24.633Z,96755.28
2022-09-14T04:40:51.078Z,96746.41
2022-09-14T04:43:17.485Z,96741.63
2022-09-14T04:45:44.424Z,96747.06
2022-09-14T04:48:11.088Z,96754.53
2022-09-14T04:50:37.748Z,96753.00
2022-09-14T04:53:04.391Z,96752.56
2022-09-14T04:55:30.889Z,96752.81
2022-09-14T04:57:57.324Z,96742.97
2022-09-14T05:00:23.787Z,96740.94
2022-09-14T05:02:50.353Z,96744.94
2022-09-14T05:05:16.789Z,96744.00
2022-09-14T05:07:43.192Z,96734.72
2022-09-14T05:10:09.736Z,96744.28
2022-09-14T05:12:36.146Z,96736.75
2022-09-14T05:15:02.657Z,96739.94
2022-09-14T05:17:29.147Z,96736.75
2022-09-14T05:19:55.631Z,96745.41
2022-09-14T05:22:22.349Z,96733.81
2022-09-14T05:24:48.845Z,96731.19
2022-09-14T05:27:15.279Z,96724.44
2022-09-14T05:29:41.944Z,96726.28
2022-09-14T05:32:08.400Z,96721.28
2022-09-14T05:34:34.874Z,96718.19
2022-09-14T05:37:01.306Z,96720.16
2022-09-14T05:39:27.803Z,96710.13
2022-09-14T05:41:54.270Z,96708.09
2022-09-14T05:44:20.738Z,96721.94
2022-09-14T05:46:47.229Z,96716.63
2022-09-14T05:49:13.771Z,96725.41
2022-09-14T05:51:40.216Z,96722.06
2022-09-14T05:54:11.370Z,96730.88
2022-09-14T05:56:38.014Z,96723.28
2022-09-14T05:59:04.445Z,96736.63
2022-09-14T06:01:32.658Z,96729.66
2022-09-14T06:04:00.454Z,96713.22
2022-09-14T06:06:26.971Z,96715.63
2022-09-14T06:08:55.054Z,96718.59
2022-09-14T06:11:23.593Z,96712.09
2022-09-14T06:13:50.552Z,96712.53
2022-09-14T06:16:18.905Z,96710.16
2022-09-14T06:18:45.939Z,96707.91
2022-09-14T06:21:16.744Z,96697.50
2022-09-14T06:23:44.038Z,96698.19
2022-09-14T06:26:10.823Z,96701.19
2022-09-14T06:28:37.311Z,96710.25
2022-09-14T06:31:04.522Z,96702.31
2022-09-14T06:33:31.492Z,96689.72
2022-09-14T06:35:59.171Z,96688.91
2022-09-14T06:38:26.481Z,96688.84
2022-09-14T06:40:54.105Z,96693.63
2022-09-14T06:43:20.604Z,96708.97
2022-09-14T06:45:55.105Z,96710.78
2022-09-14T06:48:21.591Z,96707.69
2022-09-14T06:50:48.051Z,96706.03
2022-09-14T06:53:14.526Z,96708.31
2022-09-14T06:55:41.390Z,96706.28
2022-09-14T06:58:09.469Z,96721.94
2022-09-14T07:00:36.424Z,96716.19
2022-09-14T07:03:03.001Z,96724.94
2022-09-14T07:05:30.921Z,96718.69
2022-09-14T07:07:57.681Z,96721.28
2022-09-14T07:10:28.072Z,96726.91
2022-09-14T07:12:54.932Z,96727.25
2022-09-14T07:15:21.769Z,96725.97
2022-09-14T07:17:48.185Z,96731.13
2022-09-14T07:20:15.617Z,96727.13
2022-09-14T07:22:42.349Z,96722.09
2022-09-14T07:25:09.731Z,96718.28
2022-09-14T07:27:38.658Z,96725.84
2022-09-14T07:30:06.256Z,96721.44
2022-09-14T07:32:32.714Z,96713.78
2022-09-14T07:34:59.136Z,96709.97
2022-09-14T07:37:25.611Z,96719.78
2022-09-14T07:39:52.171Z,96719.91
2022-09-14T07:42:18.608Z,96718.06
2022-09-14T07:44:45.126Z,96721.56
2022-09-14T07:47:11.694Z,96706.81
2022-09-14T07:49:38.145Z,96704.44
2022-09-14T07:52:04.610Z,96708.56
2022-09-14T07:54:31.029Z,96712.44
2022-09-14T07:56:57.840Z,96714.63
2022-09-14T07:59:35.487Z,96722.50
2022-09-14T08:02:02.495Z,96712.63
2022-09-14T08:04:28.943Z,96717.25
2022-09-14T08:06:55.324Z,96718.50
2022-09-14T08:09:21.769Z,96708.50
2022-09-14T08:11:48.156Z,96712.09
2022-09-14T08:14:15.494Z,96712.13
2022-09-14T08:16:42.139Z,96699.03
2022-09-14T08:19:12.375Z,96698.84
2022-09-14T08:21:41.718Z,96696.66
2022-09-14T08:24:12.779Z,96700.31
2022-09-14T08:26:40.774Z,96693.94
2022-09-14T08:29:08.074Z,96690.66
2022-09-14T08:31:38.943Z,96682.44
2022-09-14T08:34:06.034Z,96686.53
2022-09-14T08:36:33.648Z,96689.97
2022-09-14T08:39:00.753Z,96687.22
2022-09-14T08:41:29.072Z,96696.97
2022-09-14T08:43:59.515Z,96708.66
2022-09-14T08:46:29.885Z,96712.72
2022-09-14T08:48:56.530Z,96712.97
2022-09-14T08:51:23.344Z,96708.72
2022-09-14T08:53:50.896Z,96705.91
2022-09-14T08:56:19.049Z,96704.47
2022-09-14T08:58:48.752Z,96702.56
2022-09-14T09:01:28.602Z,96706.25
2022-09-14T09:03:55.032Z,96716.72
2022-09-14T09:06:36.501Z,96715.13
2022-09-14T09:09:02.962Z,96722.03
2022-09-14T09:11:34.542Z,96726.94
2022-09-14T09:14:05.181Z,96725.66
2022-09-14T09:16:31.661Z,96722.91
2022-09-14T09:19:00.290Z,96727.47
2022-09-14T09:21:35.463Z,96730.84
2022-09-14T09:24:24.209Z,96731.38
2022-09-14T09:26:50.693Z,96727.78
2022-09-14T09:29:17.142Z,96729.22
2022-09-14T09:32:03.874Z,96735.56
2022-09-14T09:34:56.190Z,96725.59
2022-09-14T09:37:51.756Z,96734.41
2022-09-14T09:40:40.612Z,96732.53
2022-09-14T09:43:09.229Z,96735.28
2022-09-14T09:45:55.400Z,96736.94
2022-09-14T09:48:27.807Z,96733.63
2022-09-14T09:51:00.132Z,96739.72
2022-09-14T09:53:27.223Z,96736.09
2022-09-14T09:55:53.973Z,96726.63
2022-09-14T09:58:31.400Z,96730.78
2022-09-14T10:01:02.276Z,96738.19
2022-09-14T10:03:34.003Z,96739.88
2022-09-14T10:06:05.543Z,96740.06
2022-09-14T10:08:34.898Z,96746.59
2022-09-14T10:11:02.829Z,96752.38
2022-09-14T10:13:34.402Z,96758.72
2022-09-14T10:16:15.386Z,96757.56
2022-09-14T10:18:51.962Z,96763.38
2022-09-14T10:21:19.958Z,96768.88
2022-09-14T10:23:46.594Z,96761.06
2022-09-14T10:26:17.672Z,96756.81
2022-09-14T10:28:45.706Z,96756.94
2022-09-14T10:31:15.239Z,96755.56
2022-09-14T10:33:42.196Z,96761.50
2022-09-14T10:36:11.695Z,96743.28
2022-09-14T10:38:41.357Z,96736.22
2022-09-14T10:41:13.867Z,96737.31
2022-09-14T10:43:52.347Z,96731.34
2022-09-14T10:46:25.396Z,96740.56
2022-09-14T10:49:10.402Z,96731.88
2022-09-14T10:51:49.285Z,96739.59
2022-09-14T10:54:34.355Z,96741.25
2022-09-14T10:57:17.754Z,96730.88
2022-09-14T10:59:55.160Z,96725.88
2022-09-14T11:02:21.709Z,96724.97
2022-09-14T11:05:01.391Z,96723.00
2022-09-14T11:07:47.610Z,96711.03
2022-09-14T11:10:23.138Z,96694.59
2022-09-14T11:13:04.675Z,96694.44
2022-09-14T11:15:37.226Z,96695.19
2022-09-14T11:18:22.372Z,96692.19
2022-09-14T11:20:54.898Z,96691.56
2022-09-14T11:23:24.336Z,96677.31
2022-09-14T11:25:53.830Z,96684.69
2022-09-14T11:28:25.709Z,96675.06
2022-09-14T11:31:08.864Z,96675.78
2022-09-14T11:33:38.982Z,96668.50
2022-09-14T11:36:17.333Z,96666.03
2022-09-14T11:38:47.668Z,96660.97
2022-09-14T11:41:26.258Z,96661.38
2022-09-14T11:44:10.721Z,96661.03
2022-09-14T11:46:39.581Z,96653.34
2022-09-14T11:49:39.885Z,96639.81
2022-09-14T11:52:10.110Z,96633.78
2022-09-14T11:54:42.426Z,96619.97
2022-09-14T11:57:17.530Z,96619.94
2022-09-14T11:59:44.313Z,96619.13
2022-09-14T12:02:31.119Z,96607.63
2022-09-14T12:05:06.682Z,96619.25
2022-09-14T12:07:50.070Z,96613.34
2022-09-14T12:10:19.471Z,96605.91
2022-09-14T12:12:51.115Z,96617.59
2022-09-14T12:15:26.374Z,96619.44
2022-09-14T12:17:55.122Z,96616.72
2022-09-14T12:20:43.333Z,96616.50
2022-09-14T12:23:09.751Z,96628.56
2022-09-14T12:25:37.749Z,96630.91
2022-09-14T12:28:24.115Z,96636.59
2022-09-14T12:30:53.986Z,96630.28
2022-09-14T12:33:32.714Z,96625.66
2022-09-14T12:36:17.543Z,96615.38
2022-09-14T12:38:50.054Z,96623.72
2022-09-14T12:41:16.528Z,96618.16
2022-09-14T12:43:48.870Z,96631.41
2022-09-14T12:46:21.511Z,96625.38
2022-09-14T12:48:48.125Z,96609.53
2022-09-14T12:51:32.752Z,96611.47
2022-09-14T12:54:02.152Z,96604.16
2022-09-14T12:56:35.073Z,96607.03
2022-09-14T12:59:01.578Z,96610.34
2022-09-14T13:01:34.144Z,96609.94
2022-09-14T13:04:02.104Z,96613.41
2022-09-14T13:06:40.428Z,96617.38
2022-09-14T13:09:13.400Z,96609.75
2022-09-14T13:11:41.171Z,96612.31
2022-09-14T13:14:13.860Z,96606.97
2022-09-14T13:16:44.259Z,96589.31
2022-09-14T13:19:27.438Z,96594.91
2022-09-14T13:21:55.626Z,96598.00
2022-09-14T13:24:23.847Z,96602.66
2022-09-14T13:26:50.482Z,96600.16
2022-09-14T13:29:17.112Z,96598.47
2022-09-14T13:31:44.881Z,96588.75
2022-09-14T13:34:25.603Z,96586.97
2022-09-14T13:36:52.194Z,96569.81
2022-09-14T13:39:40.110Z,96574.16
2022-09-14T13:42:06.862Z,96587.06
2022-09-14T13:44:34.817Z,96581.38
2022-09-14T13:47:02.713Z,96565.78
2022-09-14T13:49:29.572Z,96571.03
2022-09-14T13:52:16.862Z,96577.19
2022-09-14T13:54:43.649Z,96585.25
2022-09-14T13:57:17.254Z,96570.72
2022-09-14T14:00:02.541Z,96557.03
2022-09-14T14:02:32.856Z,96554.75
2022-09-14T14:04:59.626Z,96545.78
2022-09-14T14:07:36.377Z,96560.78
2022-09-14T14:10:04.102Z,96564.25
2022-09-14T14:12:33.397Z,96570.59
2022-09-14T14:15:01.111Z,96575.69
2022-09-14T14:17:27.654Z,96561.63
2022-09-14T14:19:55.495Z,96565.66
2022-09-14T14:22:27.131Z,96552.41
2022-09-14T14:27:44.814Z,96555.16
2022-09-14T14:30:18.786Z,96553.06
2022-09-14T14:32:51.812Z,96548.34
2022-09-14T14:35:22.263Z,96546.09
2022-09-14T14:37:48.966Z,96542.47
2022-09-14T14:40:16.032Z,96547.88
2022-09-14T14:42:42.835Z,96533.19
2022-09-14T14:45:13.694Z,96528.59
2022-09-14T14:47:40.652Z,96521.88
2022-09-14T14:50:14.061Z,96510.91
2022-09-14T14:52:40.605Z,96515.00
2022-09-14T14:55:08.675Z,96509.72
2022-09-14T14:57:35.429Z,96518.59
2022-09-14T15:00:02.153Z,96508.53
2022-09-14T15:02:28.669Z,96501.66
2022-09-14T15:04:55.166Z,96509.19
2022-09-14T15:07:21.645Z,96509.94
2022-09-14T15:09:48.221Z,96502.28
2022-09-14T15:12:14.766Z,96498.88
2022-09-14T15:14:41.346Z,96495.84
2022-09-14T15:17:07.994Z,96481.16
2022-09-14T15:19:34.562Z,96476.66
2022-09-14T15:22:01.849Z,96471.22
2022-09-14T15:24:28.987Z,96472.75
2022-09-14T15:26:55.727Z,96466.59
2022-09-14T15:29:22.202Z,96463.47
2022-09-14T15:31:48.694Z,96469.47
2022-09-14T15:34:15.176Z,96472.34
2022-09-14T15:36:43.473Z,96456.78
2022-09-14T15:39:11.804Z,96463.28
2022-09-14T15:41:38.614Z,96454.53
2022-09-14T15:44:05.433Z,96457.53
2022-09-14T15:46:32.061Z,96449.72
2022-09-14T15:48:59.048Z,96448.91
2022-09-14T15:51:25.491Z,96453.75
2022-09-14T15:53:52.974Z,96436.28
2022-09-14T15:56:19.477Z,96444.34
2022-09-14T15:58:48.123Z,96451.75
2022-09-14T16:01:16.060Z,96456.38
2022-09-14T16:03:42.771Z,96469.19
2022-09-14T16:06:09.926Z,96469.19
2022-09-14T16:08:37.195Z,96463.06
2022-09-14T16:11:04.445Z,96468.84
2022-09-14T16:13:31.403Z,96459.47
2022-09-14T16:16:04.345Z,96464.22
2022-09-14T16:18:30.852Z,96458.88
2022-09-14T16:21:02.798Z,96463.31
2022-09-14T16:23:29.290Z,96469.59
2022-09-14T16:25:55.707Z,96473.88
2022-09-14T16:28:22.235Z,96481.97
2022-09-14T16:30:48.666Z,96476.03
2022-09-14T16:33:15.914Z,96478.50
2022-09-14T16:35:42.330Z,96474.34
2022-09-14T16:38:08.846Z,96473.84
2022-09-14T16:40:38.999Z,96473.88
2022-09-14T16:43:08.715Z,96479.69
2022-09-14T16:45:35.214Z,96481.66
2022-09-14T16:48:01.822Z,96483.31
2022-09-14T16:50:28.256Z,96475.09
2022-09-14T16:52:54.683Z,96477.28
2022-09-14T16:55:21.212Z,96461.25
2022-09-14T16:57:47.673Z,96447.47
2022-09-14T17:00:14.328Z,96456.56
2022-09-14T17:02:40.820Z,96450.78
2022-09-14T17:05:07.757Z,96440.28
2022-09-14T17:07:34.252Z,96452.44
2022-09-14T17:10:00.701Z,96450.22
2022-09-14T17:12:27.266Z,96444.44
2022-09-14T17:14:53.738Z,96441.66
2022-09-14T17:17:20.918Z,96439.75
2022-09-14T17:19:47.357Z,96447.47
2022-09-14T17:22:14.290Z,96447.22
2022-09-14T17:24:40.845Z,96445.28
2022-09-14T17:27:07.375Z,96447.78
2022-09-14T17:29:36.784Z,96453.53
2022-09-14T17:32:03.267Z,96454.28
2022-09-14T17:34:29.804Z,96457.81
2022-09-14T17:36:56.246Z,96460.38
2022-09-14T17:39:22.683Z,96456.81
2022-09-14T17:41:49.128Z,96454.47
2022-09-14T17:44:16.023Z,96465.97
2022-09-14T17:46:51.735Z,96452.53
2022-09-14T17:49:20.760Z,96462.34
2022-09-14T17:51:48.129Z,96453.81
2022-09-14T17:54:14.551Z,96451.81
2022-09-14T17:56:41.016Z,96447.94
2022-09-14T17:59:09.968Z,96446.19
2022-09-14T18:01:36.429Z,96449.44
2022-09-14T18:04:04.978Z,96445.69
2022-09-14T18:06:32.645Z,96452.09
2022-09-14T18:09:00.429Z,96452.84
2022-09-14T18:11:27.025Z,96440.88
2022-09-14T18:13:53.522Z,96441.22
2022-09-14T18:16:21.485Z,96441.06
2022-09-14T18:18:48.267Z,96439.94
2022-09-14T18:21:16.879Z,96434.91
2022-09-14T18:23:43.799Z,96424.44
2022-09-14T18:26:10.277Z,96416.69
2022-09-14T18:28:36.757Z,96412.03
2022-09-14T18:31:04.813Z,96413.34
2022-09-14T18:33:31.430Z,96411.28
2022-09-14T18:35:57.905Z,96411.19
2022-09-14T18:38:24.694Z,96404.25
2022-09-14T18:40:51.161Z,96412.28
2022-09-14T18:43:17.612Z,96430.44
2022-09-14T18:45:44.814Z,96432.09
2022-09-14T18:48:11.740Z,96423.84
2022-09-14T18:50:39.032Z,96425.28
2022-09-14T18:53:05.661Z,96427.69
2022-09-14T18:55:33.170Z,96425.09
2022-09-14T18:58:00.125Z,96400.28
2022-09-14T19:00:26.523Z,96413.94
2022-09-14T19:02:53.822Z,96418.00
2022-09-14T19:05:20.946Z,96418.31
2022-09-14T19:07:47.553Z,96412.69
2022-09-14T19:10:14.369Z,96425.84
2022-09-14T19:12:41.372Z,96419.28
2022-09-14T19:15:08.266Z,96423.69
2022-09-14T19:17:34.672Z,96417.13
2022-09-14T19:20:01.202Z,96414.16
2022-09-14T19:22:28.777Z,96417.13
2022-09-14T19:24:55.209Z,96412.13
2022-09-14T19:27:21.666Z,96422.06
2022-09-14T19:29:48.088Z,96425.41
2022-09-14T19:32:14.554Z,96423.84
2022-09-14T19:34:41.089Z,96421.56
2022-09-14T19:37:07.558Z,96422.66
2022-09-14T19:39:34.013Z,96409.25
2022-09-14T19:42:00.432Z,96415.59
2022-09-14T19:44:26.933Z,96416.69
2022-09-14T19:46:53.405Z,96420.59
2022-09-14T19:49:22.429Z,96414.03
2022-09-14T19:51:48.942Z,96421.22
2022-09-14T19:54:15.826Z,96428.38
2022-09-14T19:56:42.541Z,96429.53
2022-09-14T19:59:09.299Z,96435.03
2022-09-14T20:01:37.328Z,96438.81
2022-09-14T20:04:04.891Z,96443.78
2022-09-14T20:06:32.895Z,96446.88
2022-09-14T20:09:01.464Z,96464.16
2022-09-14T20:11:28.851Z,96476.97
2022-09-14T20:13:56.442Z,96477.75
2022-09-14T20:16:24.792Z,96478.69
2022-09-14T20:18:51.973Z,96480.31
2022-09-14T20:21:20.101Z,96473.59
2022-09-14T20:24:11.496Z,96484.44
2022-09-14T20:26:33.427Z,96494.53
2022-09-14T20:29:01.216Z,96495.78
2022-09-14T20:31:28.561Z,96507.13
2022-09-14T20:33:55.831Z,96505.31
2022-09-14T20:36:23.530Z,96513.06
2022-09-14T20:38:54.443Z,96498.69
2022-09-14T20:41:21.914Z,96492.16
2022-09-14T20:43:49.082Z,96507.31
2022-09-14T20:46:23.351Z,96498.16
2022-09-14T20:48:50.288Z,96494.88
2022-09-14T20:51:20.697Z,96501.00
2022-09-14T20:53:47.999Z,96496.50
2022-09-14T20:56:15.843Z,96501.66
2022-09-14T20:58:42.454Z,96512.09
2022-09-14T21:01:13.603Z,96516.50
2022-09-14T21:03:42.238Z,96505.28
2022-09-14T21:06:10.270Z,96512.75
2022-09-14T21:08:37.498Z,96516.13
2022-09-14T21:11:06.205Z,96511.66
2022-09-14T21:13:33.379Z,96520.22
2022-09-14T21:16:07.250Z,96519.47
2022-09-14T21:18:33.978Z,96523.28
2022-09-14T21:21:04.003Z,96530.94
2022-09-14T21:23:30.449Z,96523.63
2022-09-14T21:25:56.918Z,96523.97
2022-09-14T21:28:24.207Z,96529.44
2022-09-14T21:30:50.689Z,96517.78
2022-09-14T21:33:17.361Z,96524.91
2022-09-14T21:35:43.982Z,96528.91
2022-09-14T21:38:11.141Z,96531.81
2022-09-14T21:40:37.597Z,96539.75
2022-09-14T21:43:04.042Z,96544.06
2022-09-14T21:45:30.516Z,96539.75
2022-09-14T21:47:56.915Z,96535.69
2022-09-14T21:50:23.744Z,96535.75
2022-09-14T21:52:50.168Z,96541.59
2022-09-14T21:55:16.574Z,96541.59
2022-09-14T21:57:43.062Z,96537.47
2022-09-14T22:00:10.750Z,96537.13
2022-09-14T22:02:37.293Z,96534.28
2022-09-14T22:05:03.939Z,96534.44
2022-09-14T22:07:30.384Z,96536.53
2022-09-14T22:09:56.871Z,96537.28
2022-09-14T22:12:23.349Z,96540.09
2022-09-14T22:14:49.807Z,96530.28
2022-09-14T22:17:17.868Z,96528.66
2022-09-14T22:19:44.945Z,96540.38
2022-09-14T22:22:11.358Z,96544.16
2022-09-14T22:24:38.890Z,96549.88
2022-09-14T22:27:09.549Z,96562.94
2022-09-14T22:29:36.673Z,96575.94
2022-09-14T22:32:04.293Z,96579.28
2022-09-14T22:34:30.936Z,96576.66
2022-09-14T22:36:57.458Z,96579.94
2022-09-14T22:39:23.947Z,96571.94
2022-09-14T22:41:50.656Z,96563.59
2022-09-14T22:44:17.053Z,96551.97
2022-09-14T22:46:43.722Z,96556.75
2022-09-14T22:49:10.217Z,96555.13
2022-09-14T22:51:36.813Z,96555.19
2022-09-14T22:54:03.945Z,96550.06
2022-09-14T22:56:31.941Z,96554.00
2022-09-14T22:58:58.492Z,96560.78
2022-09-14T23:01:26.606Z,96558.63
2022-09-14T23:03:58.323Z,96570.75
2022-09-14T23:06:51.121Z,96603.03
2022-09-14T23:09:20.272Z,96616.31
2022-09-14T23:11:46.991Z,96621.50
2022-09-14T23:14:14.243Z,96623.69
2022-09-14T23:16:41.562Z,96623.41
2022-09-14T23:19:08.360Z,96627.28
2022-09-14T23:21:35.331Z,96628.16
2022-09-14T23:24:03.609Z,96620.66
2022-09-14T23:26:30.515Z,96619.84
2022-09-14T23:29:01.388Z,96605.78
2022-09-14T23:31:29.153Z,96604.31
2022-09-14T23:33:56.621Z,96611.41
2022-09-14T23:36:23.538Z,96624.47
2022-09-14T23:38:50.514Z,96623.13
2022-09-14T23:41:17.582Z,96617.47
2022-09-14T23:43:44.166Z,96610.00
2022-09-14T23:46:10.946Z,96612.16
2022-09-14T23:48:37.571Z,96618.28
2022-09-14T23:51:04.875Z,96613.59
2022-09-14T23:53:31.528Z,96623.13
2022-09-14T23:55:58.402Z,96635.19
2022-09-14T23:58:25.275Z,96637.25
